Time;durP1;ratioP1;P1;durP2;ratioP2;P2;SDS_P1;SDS_P2;PMS_P1;PMS_P2;Temp;Humidity;BMP_temperature;BMP_pressure;BME280_temperature;BME280_humidity;BME280_pressure;Samples;Min_cycle;Max_cycle;Signal;HPM_P1;HPM_P2
2023/03/07 00:02:19;;;;;;;19.73;9.18;;;;;;;0.91;80.64;92745.72;5030824;28;20053;-60
2023/03/07 00:04:45;;;;;;;17.00;7.65;;;;;;;0.96;79.10;92745.31;5030327;28;20499;-60
2023/03/07 00:07:13;;;;;;;21.00;10.38;;;;;;;1.08;78.57;92738.78;5031176;28;20041;-60
2023/03/07 00:09:40;;;;;;;24.15;10.88;;;;;;;1.17;78.21;92739.97;5030606;28;20555;-60
2023/03/07 00:12:07;;;;;;;17.47;8.10;;;;;;;1.08;76.86;92739.56;5031232;28;20045;-60
2023/03/07 00:14:34;;;;;;;16.08;7.43;;;;;;;0.77;78.35;92743.75;5043254;28;20053;-60
2023/03/07 00:17:01;;;;;;;15.07;7.22;;;;;;;0.84;77.51;92743.00;5030625;28;21071;-61
2023/03/07 00:19:28;;;;;;;14.82;7.20;;;;;;;0.86;77.16;92741.44;5040114;28;20057;-59
2023/03/07 00:21:55;;;;;;;14.63;7.38;;;;;;;0.93;75.13;92746.88;5030238;28;20057;-59
2023/03/07 00:24:22;;;;;;;15.20;7.10;;;;;;;0.90;74.45;92733.34;5030878;28;20052;-60
2023/03/07 00:26:48;;;;;;;14.90;6.32;;;;;;;0.97;74.43;92742.25;5028982;28;20048;-61
2023/03/07 00:29:15;;;;;;;14.75;7.60;;;;;;;0.76;75.32;92736.78;5030135;28;20044;-59
2023/03/07 00:31:42;;;;;;;14.57;6.75;;;;;;;0.69;75.10;92744.88;5029012;28;20088;-62
2023/03/07 00:34:09;;;;;;;15.27;6.97;;;;;;;0.76;74.50;92745.66;5030455;28;20041;-61
2023/03/07 00:36:35;;;;;;;15.50;6.63;;;;;;;0.82;74.12;92742.59;5030141;28;20045;-60
2023/03/07 00:39:03;;;;;;;14.25;6.30;;;;;;;0.77;74.27;92741.81;5030399;28;20038;-61
2023/03/07 00:41:29;;;;;;;13.45;6.47;;;;;;;0.63;73.05;92730.22;5030595;28;20053;-59
2023/03/07 00:43:56;;;;;;;14.38;6.72;;;;;;;0.66;73.50;92738.31;5028396;28;20049;-62
2023/03/07 00:46:24;;;;;;;16.85;7.88;;;;;;;0.60;72.45;92729.03;5030582;28;20076;-62
2023/03/07 00:48:52;;;;;;;14.43;6.30;;;;;;;0.56;70.05;92726.34;5028862;28;20645;-62
2023/03/07 00:51:20;;;;;;;13.25;5.72;;;;;;;0.61;68.95;92727.88;5039208;28;20057;-62
2023/03/07 00:53:47;;;;;;;15.40;6.53;;;;;;;0.55;70.07;92729.41;5033914;28;20487;-62
2023/03/07 00:56:15;;;;;;;14.55;6.45;;;;;;;0.65;69.01;92728.69;5030160;28;20045;-62
2023/03/07 00:58:42;;;;;;;14.75;6.28;;;;;;;0.50;68.75;92729.78;5029738;28;20041;-63
2023/03/07 01:01:12;;;;;;;14.47;6.20;;;;;;;0.46;69.65;92734.38;5030057;28;20037;-60
2023/03/07 01:03:39;;;;;;;14.48;6.40;;;;;;;0.38;69.67;92725.50;5029450;28;20056;-60
2023/03/07 01:06:09;;;;;;;13.15;6.40;;;;;;;0.35;69.64;92726.25;5028629;28;20049;-60
2023/03/07 01:08:35;;;;;;;13.38;6.10;;;;;;;0.35;69.58;92724.34;5028238;28;20053;-61
2023/03/07 01:11:04;;;;;;;13.98;6.45;;;;;;;0.36;69.44;92723.19;5029986;28;20038;-60
2023/03/07 01:13:33;;;;;;;13.50;6.07;;;;;;;0.28;70.13;92721.63;5030091;28;20054;-62
2023/03/07 01:16:23;;;;;;;13.40;6.40;;;;;;;0.33;70.36;92723.19;5029249;28;20041;-60
2023/03/07 01:18:54;;;;;;;12.85;6.53;;;;;;;0.37;70.22;92724.72;5029568;28;20380;-60
2023/03/07 01:21:41;;;;;;;16.00;6.57;;;;;;;0.46;69.99;92731.69;5029717;28;20402;-60
2023/03/07 01:24:11;;;;;;;20.75;8.70;;;;;;;0.51;70.10;92723.25;5029184;28;21721;-60
2023/03/07 01:26:37;;;;;;;14.80;7.40;;;;;;;0.49;69.65;92720.91;5015068;28;20041;-60
2023/03/07 01:29:06;;;;;;;13.73;6.57;;;;;;;0.50;70.05;92721.69;5040451;28;20067;-60
2023/03/07 01:31:33;;;;;;;14.73;6.80;;;;;;;0.56;70.03;92720.94;5030618;28;20053;-60
2023/03/07 01:34:01;;;;;;;14.48;6.50;;;;;;;0.41;70.73;92723.97;5028808;28;20318;-61
2023/03/07 01:36:31;;;;;;;13.85;6.50;;;;;;;0.47;69.89;92717.81;5029646;28;20048;-60
2023/03/07 01:39:15;;;;;;;12.77;5.90;;;;;;;0.37;70.30;92713.94;5029299;28;20421;-60
2023/03/07 01:41:43;;;;;;;13.30;5.78;;;;;;;0.49;69.79;92712.06;5015674;28;20136;-60
2023/03/07 01:44:19;;;;;;;14.50;6.43;;;;;;;0.55;69.53;92707.81;5029776;28;20054;-61
2023/03/07 01:46:55;;;;;;;13.88;6.32;;;;;;;0.50;69.92;92703.53;5029179;28;20049;-60
2023/03/07 01:49:51;;;;;;;13.38;6.28;;;;;;;0.34;70.43;92698.50;5024060;28;20351;-61
2023/03/07 01:52:24;;;;;;;12.73;6.10;;;;;;;0.42;70.18;92696.59;5019860;28;20401;-61
2023/03/07 01:54:54;;;;;;;13.68;6.25;;;;;;;0.21;70.80;92694.59;5029019;28;20045;-61
2023/03/07 01:57:27;;;;;;;14.68;6.18;;;;;;;0.12;71.61;92692.25;5029737;28;20041;-61
2023/03/07 01:59:57;;;;;;;13.07;6.10;;;;;;;0.06;72.03;92687.59;5029112;28;20045;-60
2023/03/07 02:02:24;;;;;;;13.15;6.32;;;;;;;0.05;72.20;92689.53;5029679;28;20049;-61
2023/03/07 02:05:08;;;;;;;13.80;6.03;;;;;;;0.13;72.06;92683.00;5027768;28;20173;-61
2023/03/07 02:07:41;;;;;;;15.90;6.18;;;;;;;0.09;72.27;92681.44;5029561;28;20340;-60
2023/03/07 02:10:10;;;;;;;14.75;6.22;;;;;;;-0.12;73.40;92677.53;5028827;28;20680;-61
2023/03/07 02:12:39;;;;;;;13.32;6.15;;;;;;;-0.10;73.44;92672.53;5027580;28;20099;-61
2023/03/07 02:15:08;;;;;;;14.95;5.90;;;;;;;-0.15;73.79;92683.66;5029830;28;20552;-61
2023/03/07 02:17:35;;;;;;;14.23;6.17;;;;;;;-0.11;73.70;92681.75;5032855;28;20049;-58
2023/03/07 02:20:10;;;;;;;13.48;5.75;;;;;;;-0.11;73.95;92679.03;5033456;28;20064;-60
2023/03/07 02:22:37;;;;;;;13.45;6.20;;;;;;;-0.12;74.23;92669.44;5032772;28;20041;-61
2023/03/07 02:25:24;;;;;;;13.48;6.05;;;;;;;-0.28;75.18;92674.31;5032838;28;20439;-61
2023/03/07 02:27:54;;;;;;;12.60;5.63;;;;;;;-0.26;75.44;92667.44;5032523;28;20403;-61
2023/03/07 02:30:21;;;;;;;13.30;6.10;;;;;;;-0.29;75.93;92678.97;5032846;28;20052;-61
2023/03/07 02:32:48;;;;;;;13.80;6.05;;;;;;;-0.28;75.89;92671.63;5032067;28;20053;-61
2023/03/07 02:35:18;;;;;;;14.48;6.05;;;;;;;-0.43;77.40;92670.78;5032787;28;20065;-61
2023/03/07 02:37:48;;;;;;;14.05;6.30;;;;;;;-0.56;78.26;92667.66;5031971;28;20066;-62
2023/03/07 02:40:19;;;;;;;14.73;6.28;;;;;;;-0.34;77.10;92670.44;5032746;28;20560;-61
2023/03/07 02:42:46;;;;;;;12.80;5.83;;;;;;;-0.35;76.46;92661.59;5045602;28;20053;-60
2023/03/07 02:45:16;;;;;;;13.65;6.15;;;;;;;-0.26;76.55;92663.97;5032865;28;20540;-61
2023/03/07 02:47:44;;;;;;;13.90;6.10;;;;;;;-0.15;76.08;92672.88;5032000;28;20409;-61
2023/03/07 02:50:13;;;;;;;12.77;5.75;;;;;;;-0.20;75.56;92662.47;5032615;28;20045;-61
2023/03/07 02:52:40;;;;;;;13.45;5.93;;;;;;;-0.22;76.29;92670.91;5031979;28;20045;-61
2023/03/07 02:55:07;;;;;;;13.07;5.97;;;;;;;-0.20;75.81;92662.47;5032191;28;20072;-60
2023/03/07 02:57:34;;;;;;;11.45;5.53;;;;;;;-0.25;76.80;92650.09;5032355;28;20057;-61
2023/03/07 03:00:06;;;;;;;14.32;6.47;;;;;;;-0.24;77.06;92654.34;5030896;28;20837;-61
2023/03/07 03:02:33;;;;;;;13.82;5.93;;;;;;;-0.17;76.45;92658.22;5032433;28;20114;-61
2023/03/07 03:04:59;;;;;;;15.48;7.07;;;;;;;-0.30;77.31;92652.38;5016912;28;20056;-61
2023/03/07 03:07:26;;;;;;;14.63;6.37;;;;;;;-0.31;77.52;92651.59;5032191;28;20414;-61
2023/03/07 03:09:53;;;;;;;14.88;6.80;;;;;;;-0.35;77.67;92650.81;5031568;28;20038;-61
2023/03/07 03:12:20;;;;;;;15.32;6.90;;;;;;;-0.38;77.68;92648.09;5032306;28;20474;-61
2023/03/07 03:14:47;;;;;;;15.45;6.90;;;;;;;-0.41;77.90;92650.41;5030287;28;20037;-60
2023/03/07 03:17:14;;;;;;;12.82;6.13;;;;;;;-0.45;77.86;92648.84;5031964;28;20490;-61
2023/03/07 03:19:41;;;;;;;12.20;5.77;;;;;;;-0.41;77.90;92644.25;5030162;28;20044;-61
2023/03/07 03:22:07;;;;;;;13.35;5.82;;;;;;;-0.59;78.86;92638.75;5031945;28;20503;-61
2023/03/07 03:24:38;;;;;;;13.50;5.72;;;;;;;-0.61;78.83;92635.66;5031895;28;20048;-61
2023/03/07 03:27:06;;;;;;;12.48;5.22;;;;;;;-0.59;79.10;92643.38;5030802;28;20393;-63
2023/03/07 03:29:33;;;;;;;12.30;5.40;;;;;;;-0.77;80.39;92630.56;5025730;28;20050;-62
2023/03/07 03:32:01;;;;;;;12.07;5.67;;;;;;;-0.78;81.09;92628.25;5011276;28;20534;-61
2023/03/07 03:34:28;;;;;;;13.65;6.47;;;;;;;-0.93;82.28;92627.38;5029910;28;20064;-61
2023/03/07 03:36:55;;;;;;;16.13;6.90;;;;;;;-0.96;82.87;92617.38;5031133;28;20053;-61
2023/03/07 03:39:22;;;;;;;16.27;6.07;;;;;;;-1.05;83.97;92629.25;5031688;28;20049;-61
2023/03/07 03:41:49;;;;;;;13.77;5.97;;;;;;;-1.15;85.03;92618.38;5031039;28;20041;-62
2023/03/07 03:44:15;;;;;;;13.30;5.80;;;;;;;-1.13;85.03;92618.78;5031431;28;20045;-59
2023/03/07 03:46:42;;;;;;;13.63;6.32;;;;;;;-1.10;85.22;92623.41;5031086;28;20066;-61
2023/03/07 03:49:12;;;;;;;13.77;6.35;;;;;;;-1.06;84.78;92618.84;5026716;28;20046;-60
2023/03/07 03:51:39;;;;;;;13.10;6.00;;;;;;;-1.16;85.39;92623.00;5017697;28;20482;-59
2023/03/07 03:54:05;;;;;;;13.18;6.15;;;;;;;-1.21;86.36;92613.34;5026582;28;20037;-60
2023/03/07 03:56:32;;;;;;;12.17;5.93;;;;;;;-1.19;86.21;92614.88;5031324;28;20040;-59
2023/03/07 03:58:58;;;;;;;13.32;6.03;;;;;;;-1.23;86.97;92612.94;5030496;28;20041;-60
2023/03/07 04:01:27;;;;;;;15.25;6.30;;;;;;;-1.23;86.85;92612.94;5031086;28;20164;-60
2023/03/07 04:03:55;;;;;;;13.35;6.10;;;;;;;-1.30;87.58;92612.88;5030582;28;20049;-60
2023/03/07 04:06:27;;;;;;;16.80;7.30;;;;;;;-1.35;87.93;92612.44;5030976;28;20072;-61
2023/03/07 04:08:54;;;;;;;15.60;6.40;;;;;;;-1.38;88.20;92615.91;5030536;28;20056;-60
2023/03/07 04:11:22;;;;;;;16.60;7.18;;;;;;;-1.38;88.54;92611.28;5029602;28;20049;-61
2023/03/07 04:13:49;;;;;;;15.15;5.95;;;;;;;-1.52;90.32;92616.53;5030625;28;20103;-61
2023/03/07 04:16:16;;;;;;;13.02;5.80;;;;;;;-1.51;90.34;92608.09;5030707;28;20418;-61
2023/03/07 04:18:44;;;;;;;15.00;6.20;;;;;;;-1.53;91.12;92607.69;5030553;28;20053;-60
2023/03/07 04:21:11;;;;;;;16.03;6.57;;;;;;;-1.50;91.35;92600.81;5030645;28;20387;-60
2023/03/07 04:23:38;;;;;;;15.77;6.57;;;;;;;-1.53;91.75;92598.84;5029076;28;20038;-61
2023/03/07 04:26:07;;;;;;;15.35;6.45;;;;;;;-1.52;91.10;92590.41;5030624;28;20041;-61
2023/03/07 04:31:11;;;;;;;15.25;7.63;;;;;;;-1.55;92.72;92593.06;5022524;28;20045;-61
2023/03/07 04:33:38;;;;;;;14.27;6.43;;;;;;;-1.48;92.95;92593.13;5030137;28;20045;-60
2023/03/07 04:36:05;;;;;;;15.68;6.38;;;;;;;-1.44;92.45;92592.00;5030655;28;20042;-61
2023/03/07 04:38:32;;;;;;;13.88;6.78;;;;;;;-1.44;92.22;92607.38;5040369;28;20441;-61
2023/03/07 04:40:58;;;;;;;16.13;6.70;;;;;;;-1.47;92.19;92597.34;5030300;28;20047;-61
2023/03/07 04:43:25;;;;;;;15.38;6.60;;;;;;;-1.49;92.70;92596.94;5030446;28;20402;-60
2023/03/07 04:45:52;;;;;;;14.93;6.53;;;;;;;-1.45;92.81;92597.75;5028730;28;20054;-61
2023/03/07 04:48:19;;;;;;;14.77;6.35;;;;;;;-1.45;93.11;92601.25;5030167;28;20487;-61
2023/03/07 04:50:50;;;;;;;16.55;7.43;;;;;;;-1.44;93.33;92594.69;5029672;28;20457;-61
2023/03/07 04:53:18;;;;;;;15.25;6.30;;;;;;;-1.47;93.48;92587.38;5030131;28;20068;-60
2023/03/07 04:55:45;;;;;;;15.18;7.05;;;;;;;-1.69;95.86;92580.25;5029723;28;20461;-60
2023/03/07 04:58:12;;;;;;;15.67;6.33;;;;;;;-1.72;96.61;92592.53;5029964;28;20045;-60
2023/03/07 05:00:41;;;;;;;16.42;6.90;;;;;;;-1.68;95.66;92584.50;5029568;28;20045;-61
2023/03/07 05:03:09;;;;;;;21.67;9.52;;;;;;;-1.78;96.40;92594.00;5029954;28;20071;-61
2023/03/07 05:05:36;;;;;;;26.08;11.95;;;;;;;-1.81;96.44;92587.47;5029570;28;20398;-62
2023/03/07 05:08:03;;;;;;;24.90;10.38;;;;;;;-1.88;96.65;92586.63;5029796;28;20071;-61
2023/03/07 05:10:31;;;;;;;20.40;9.00;;;;;;;-1.90;97.10;92586.22;5030201;28;20055;-60
2023/03/07 05:12:58;;;;;;;19.63;9.00;;;;;;;-2.02;98.26;92576.50;5029394;28;20075;-61
2023/03/07 05:15:25;;;;;;;21.85;8.85;;;;;;;-2.02;99.36;92584.56;5029805;28;20045;-60
2023/03/07 05:17:52;;;;;;;25.08;8.75;;;;;;;-2.02;98.61;92579.19;5027987;28;20050;-60
2023/03/07 05:20:19;;;;;;;17.90;8.02;;;;;;;-2.02;99.69;92579.94;5029660;28;20421;-62
2023/03/07 05:22:45;;;;;;;24.57;10.37;;;;;;;-2.08;100.00;92588.72;5029310;28;20071;-61
2023/03/07 05:25:12;;;;;;;21.38;9.02;;;;;;;-2.11;100.00;92578.69;5029818;28;20052;-61
2023/03/07 05:27:39;;;;;;;19.05;7.90;;;;;;;-2.10;100.00;92580.25;5029333;28;20053;-61
2023/03/07 05:30:07;;;;;;;19.98;7.57;;;;;;;-2.11;100.00;92581.38;5029092;28;20048;-60
2023/03/07 05:32:33;;;;;;;18.50;8.02;;;;;;;-2.17;100.00;92586.34;5029690;28;20058;-60
2023/03/07 05:35:01;;;;;;;17.00;6.90;;;;;;;-2.35;100.00;92591.50;5028639;28;21716;-60
2023/03/07 05:37:27;;;;;;;16.58;7.38;;;;;;;-2.41;100.00;92587.59;5029471;28;20095;-62
2023/03/07 05:39:55;;;;;;;15.48;7.07;;;;;;;-2.32;100.00;92581.94;5040967;28;20080;-61
2023/03/07 05:42:22;;;;;;;17.85;7.07;;;;;;;-2.32;100.00;92588.06;5029440;28;20122;-61
2023/03/07 05:44:48;;;;;;;15.80;7.35;;;;;;;-2.35;100.00;92583.44;5032971;28;20044;-60
2023/03/07 05:47:15;;;;;;;16.97;6.97;;;;;;;-2.28;100.00;92574.69;5038707;28;20053;-61
2023/03/07 05:49:42;;;;;;;16.27;6.57;;;;;;;-2.26;100.00;92575.09;5030240;28;20045;-62
2023/03/07 05:52:09;;;;;;;19.55;8.20;;;;;;;-2.29;100.00;92573.16;5033468;28;20102;-61
2023/03/07 05:54:35;;;;;;;17.48;7.47;;;;;;;-2.28;100.00;92572.78;5032801;28;20114;-57
2023/03/07 05:57:02;;;;;;;20.00;8.57;;;;;;;-2.32;100.00;92569.28;5040195;28;20492;-61
2023/03/07 05:59:29;;;;;;;25.57;9.60;;;;;;;-2.49;100.00;92567.19;5039018;28;20501;-60
2023/03/07 06:01:55;;;;;;;18.60;7.68;;;;;;;-2.42;100.00;92568.00;5032897;28;20115;-60
2023/03/07 06:04:22;;;;;;;59.55;22.08;;;;;;;-2.41;100.00;92558.06;5033066;28;20438;-60
2023/03/07 06:06:49;;;;;;;28.45;10.88;;;;;;;-2.31;100.00;92562.78;5032492;28;20049;-60
2023/03/07 06:09:16;;;;;;;34.40;13.23;;;;;;;-2.24;100.00;92560.16;5033076;28;20053;-60
2023/03/07 06:11:42;;;;;;;37.47;14.33;;;;;;;-2.25;100.00;92572.03;5032444;28;20041;-61
2023/03/07 06:14:09;;;;;;;25.42;9.95;;;;;;;-2.24;100.00;92564.75;5032760;28;20530;-60
2023/03/07 06:16:35;;;;;;;27.73;10.70;;;;;;;-2.07;100.00;92558.03;5031910;28;20475;-61
2023/03/07 06:19:02;;;;;;;23.98;10.05;;;;;;;-2.08;100.00;92551.84;5031948;28;20401;-60
2023/03/07 06:21:29;;;;;;;23.02;9.98;;;;;;;-1.99;100.00;92559.66;5031621;28;20095;-61
2023/03/07 06:23:56;;;;;;;25.57;10.90;;;;;;;-1.92;100.00;92550.88;5030072;28;20045;-60
2023/03/07 06:26:22;;;;;;;26.02;11.80;;;;;;;-1.78;100.00;92545.59;5043175;28;20045;-60
2023/03/07 06:28:49;;;;;;;24.27;10.50;;;;;;;-1.72;100.00;92549.50;5032758;28;20041;-63
2023/03/07 06:31:18;;;;;;;21.23;9.45;;;;;;;-1.61;100.00;92547.69;5031499;28;20049;-63
2023/03/07 06:33:46;;;;;;;21.85;10.63;;;;;;;-1.40;100.00;92540.91;5031216;28;20103;-62
2023/03/07 06:36:15;;;;;;;23.23;9.60;;;;;;;-1.24;99.45;92546.03;5031566;28;20357;-62
2023/03/07 06:38:42;;;;;;;19.85;9.20;;;;;;;-1.07;98.06;92541.88;5033953;28;20424;-62
2023/03/07 06:41:09;;;;;;;22.48;9.25;;;;;;;-0.77;96.63;92551.69;5042082;28;20095;-62
2023/03/07 06:43:36;;;;;;;20.05;8.98;;;;;;;-0.57;95.55;92544.06;5029644;28;20037;-61
2023/03/07 06:46:02;;;;;;;22.63;10.45;;;;;;;-0.50;94.01;92544.88;5031547;28;20047;-62
2023/03/07 06:48:29;;;;;;;19.07;8.03;;;;;;;-0.59;93.37;92544.44;5031570;28;20106;-62
2023/03/07 06:50:56;;;;;;;16.30;7.03;;;;;;;-0.61;93.33;92544.81;5022712;28;20049;-61
2023/03/07 06:53:23;;;;;;;18.20;7.80;;;;;;;-0.45;93.68;92555.28;5029957;28;20050;-63
2023/03/07 06:55:51;;;;;;;17.65;7.53;;;;;;;-0.23;92.43;92558.06;5031021;28;20075;-62
2023/03/07 06:58:18;;;;;;;16.05;7.32;;;;;;;-0.29;92.57;92560.34;5031260;28;20049;-61
2023/03/07 07:00:44;;;;;;;16.70;7.17;;;;;;;-0.50;94.00;92557.59;5030250;28;20046;-61
2023/03/07 07:03:12;;;;;;;15.63;7.30;;;;;;;-0.51;94.89;92545.25;5044257;28;20409;-61
2023/03/07 07:05:39;;;;;;;14.57;7.18;;;;;;;-0.24;93.58;92551.13;5029191;28;20041;-62
2023/03/07 07:08:06;;;;;;;16.45;7.07;;;;;;;-0.23;92.29;92556.13;5033020;28;20045;-63
2023/03/07 07:10:32;;;;;;;15.00;7.38;;;;;;;-0.13;91.49;92549.22;5042549;28;20050;-63
2023/03/07 07:12:59;;;;;;;20.47;7.33;;;;;;;0.05;91.14;92543.88;5030591;28;20095;-63
2023/03/07 07:15:26;;;;;;;16.95;7.20;;;;;;;0.16;90.05;92543.88;5031264;28;20405;-62
2023/03/07 07:17:53;;;;;;;16.83;7.40;;;;;;;-0.05;91.26;92534.59;5030580;28;20060;-63
2023/03/07 07:20:20;;;;;;;16.85;7.25;;;;;;;-0.07;90.76;92539.59;5031316;28;20559;-63
2023/03/07 07:22:46;;;;;;;15.90;7.55;;;;;;;0.16;89.81;92544.69;5030488;28;20079;-63
2023/03/07 07:25:13;;;;;;;16.87;6.57;;;;;;;0.20;89.53;92541.97;5031202;28;20040;-63
2023/03/07 07:27:40;;;;;;;17.58;7.07;;;;;;;0.12;90.69;92551.19;5029433;28;20046;-63
2023/03/07 07:30:07;;;;;;;15.55;7.28;;;;;;;0.05;90.52;92541.19;5030639;28;20046;-63
2023/03/07 07:32:34;;;;;;;16.02;7.07;;;;;;;0.04;90.47;92538.84;5031212;28;20041;-62
2023/03/07 07:35:01;;;;;;;16.48;7.55;;;;;;;0.16;89.61;92539.28;5030179;28;21420;-62
2023/03/07 07:37:28;;;;;;;17.07;7.30;;;;;;;0.31;88.51;92536.59;5030815;28;20064;-63
2023/03/07 07:39:54;;;;;;;15.88;7.25;;;;;;;0.58;87.43;92526.19;5030233;28;20053;-61
2023/03/07 07:42:21;;;;;;;17.42;8.15;;;;;;;0.63;88.29;92535.84;5030675;28;20055;-63
2023/03/07 07:44:48;;;;;;;17.77;7.95;;;;;;;0.79;86.70;92528.88;5028605;28;20053;-61
2023/03/07 07:47:14;;;;;;;20.33;8.50;;;;;;;0.90;86.88;92522.69;5030570;28;20075;-62
2023/03/07 07:49:41;;;;;;;17.10;7.43;;;;;;;0.90;84.90;92542.34;5028550;28;20053;-62
2023/03/07 07:52:08;;;;;;;19.33;8.32;;;;;;;0.85;86.45;92536.59;5029191;28;20049;-62
2023/03/07 07:54:35;;;;;;;18.77;8.48;;;;;;;0.84;87.66;92533.09;5040027;28;20059;-62
2023/03/07 07:57:01;;;;;;;17.80;8.50;;;;;;;1.02;86.61;92532.31;5029299;28;20728;-62
2023/03/07 07:59:30;;;;;;;16.85;8.25;;;;;;;1.07;85.18;92524.59;5031854;28;20405;-61
2023/03/07 08:01:57;;;;;;;18.80;8.57;;;;;;;1.31;83.83;92524.91;5029814;28;20056;-61
2023/03/07 08:04:24;;;;;;;16.17;7.95;;;;;;;1.43;82.05;92527.19;5030251;28;20049;-62
2023/03/07 08:06:51;;;;;;;19.85;8.88;;;;;;;1.08;83.20;92528.06;5029694;28;20053;-62
2023/03/07 08:09:18;;;;;;;19.77;8.23;;;;;;;1.10;84.14;92520.34;5030120;28;20045;-61
2023/03/07 08:11:45;;;;;;;18.02;8.50;;;;;;;1.26;84.82;92534.19;5025036;28;20040;-61
2023/03/07 08:14:12;;;;;;;19.40;8.37;;;;;;;1.14;84.25;92529.97;5022644;28;20046;-61
2023/03/07 08:16:38;;;;;;;17.95;8.73;;;;;;;1.38;83.92;92527.59;5029453;28;20041;-62
2023/03/07 08:19:05;;;;;;;17.83;8.90;;;;;;;1.50;84.06;92524.44;5030084;28;20118;-62
2023/03/07 08:21:32;;;;;;;17.80;8.55;;;;;;;1.46;82.75;92525.63;5029796;28;20414;-62
2023/03/07 08:23:58;;;;;;;16.38;8.35;;;;;;;1.31;82.89;92522.97;5029732;28;20111;-61
2023/03/07 08:26:25;;;;;;;18.93;8.20;;;;;;;1.31;83.62;92531.09;5029849;28;20406;-62
2023/03/07 08:28:52;;;;;;;21.10;9.13;;;;;;;1.45;84.73;92524.88;5029082;28;20049;-61
2023/03/07 08:31:22;;;;;;;17.65;8.88;;;;;;;1.51;82.89;92531.41;5029530;28;20042;-61
2023/03/07 08:33:50;;;;;;;17.25;8.52;;;;;;;1.70;81.11;92524.75;5029239;28;20048;-61
2023/03/07 08:36:17;;;;;;;17.00;8.88;;;;;;;1.88;80.28;92524.69;5029334;28;20494;-61
2023/03/07 08:38:50;;;;;;;17.57;8.40;;;;;;;1.80;80.67;92526.63;5028783;28;20409;-62
2023/03/07 08:41:18;;;;;;;17.65;8.27;;;;;;;1.87;79.84;92523.16;5029621;28;20049;-61
2023/03/07 08:43:45;;;;;;;15.55;8.00;;;;;;;1.81;79.55;92524.69;5029176;28;20500;-61
2023/03/07 08:46:12;;;;;;;16.58;8.00;;;;;;;1.75;79.25;92518.94;5029698;28;20433;-61
2023/03/07 08:48:38;;;;;;;16.75;8.38;;;;;;;2.08;78.58;92521.47;5029112;28;20111;-61
2023/03/07 08:51:08;;;;;;;16.53;8.30;;;;;;;2.31;74.77;92524.41;5029307;28;20038;-62
2023/03/07 08:53:35;;;;;;;20.38;8.50;;;;;;;2.46;73.90;92524.34;5029634;28;20042;-61
2023/03/07 08:56:10;;;;;;;16.20;7.75;;;;;;;2.07;73.34;92523.41;5015236;28;20613;-63
2023/03/07 08:58:37;;;;;;;20.25;9.23;;;;;;;2.17;72.43;92527.22;5028820;28;20064;-62
2023/03/07 09:01:05;;;;;;;14.50;7.50;;;;;;;2.23;70.54;92514.78;5028120;28;20444;-63
2023/03/07 09:03:32;;;;;;;17.87;8.23;;;;;;;2.37;69.03;92517.44;5028090;28;20490;-62
2023/03/07 09:05:59;;;;;;;16.27;7.45;;;;;;;2.58;67.97;92504.91;5028953;28;20040;-62
2023/03/07 09:08:26;;;;;;;15.45;7.40;;;;;;;3.06;65.82;92506.78;5035558;28;20055;-61
2023/03/07 09:10:53;;;;;;;17.02;8.30;;;;;;;3.28;63.55;92510.06;5034662;28;20052;-62
2023/03/07 09:13:20;;;;;;;14.73;7.15;;;;;;;3.23;62.64;92512.44;5029132;28;20424;-62
2023/03/07 09:15:46;;;;;;;15.93;7.30;;;;;;;3.26;62.23;92506.19;5028809;28;20061;-62
2023/03/07 09:18:13;;;;;;;13.63;6.97;;;;;;;4.17;61.58;92508.19;5029069;28;20045;-61
2023/03/07 09:20:40;;;;;;;13.52;7.50;;;;;;;4.89;58.65;92496.25;5027554;28;20558;-62
2023/03/07 09:23:07;;;;;;;15.73;8.10;;;;;;;4.22;58.23;92490.66;5029065;28;20053;-62
2023/03/07 09:25:36;;;;;;;14.55;7.85;;;;;;;4.75;55.95;92485.59;5028984;28;20053;-59
2023/03/07 09:28:03;;;;;;;14.93;7.73;;;;;;;5.14;55.27;92484.91;5028130;28;21859;-60
2023/03/07 09:30:30;;;;;;;15.52;7.95;;;;;;;4.26;56.44;92482.47;5029042;28;20045;-61
2023/03/07 09:32:57;;;;;;;15.77;7.97;;;;;;;4.59;56.50;92488.97;5028376;28;20041;-61
2023/03/07 09:35:24;;;;;;;14.50;7.68;;;;;;;4.73;55.63;92477.09;5029030;28;20060;-60
2023/03/07 09:37:50;;;;;;;14.50;7.65;;;;;;;7.42;50.16;92478.78;5028135;28;20045;-61
2023/03/07 09:40:22;;;;;;;13.77;7.67;;;;;;;8.18;47.06;92470.03;5028813;28;20417;-62
2023/03/07 09:43:17;;;;;;;12.75;7.20;;;;;;;8.30;44.48;92463.03;5027118;28;20046;-61
2023/03/07 09:46:03;;;;;;;14.23;8.18;;;;;;;7.87;46.73;92467.78;5028504;28;20046;-61
2023/03/07 09:49:15;;;;;;;13.77;8.35;;;;;;;8.28;43.71;92460.75;5015726;28;20056;-62
2023/03/07 09:51:44;;;;;;;13.70;8.30;;;;;;;6.16;47.35;92447.16;5014140;28;21658;-62
2023/03/07 09:54:15;;;;;;;12.93;7.60;;;;;;;8.63;44.43;92451.91;5028674;28;20045;-62
2023/03/07 09:56:50;;;;;;;13.25;7.60;;;;;;;7.93;45.27;92457.88;5026200;28;20522;-62
2023/03/07 09:59:27;;;;;;;13.52;8.02;;;;;;;11.43;39.44;92447.97;5028866;28;20057;-62
2023/03/07 10:02:30;;;;;;;12.98;7.93;;;;;;;11.72;36.66;92441.25;5028142;28;20049;-62
2023/03/07 10:04:56;;;;;;;12.80;7.78;;;;;;;12.33;35.45;92444.06;5026778;28;20045;-61
2023/03/07 10:07:24;;;;;;;12.63;8.37;;;;;;;13.53;33.47;92447.03;5028768;28;20063;-62
2023/03/07 10:09:56;;;;;;;12.75;7.80;;;;;;;14.94;30.53;92423.91;5026955;28;20425;-62
2023/03/07 10:12:32;;;;;;;11.93;8.00;;;;;;;14.53;30.45;92421.75;5028711;28;20063;-62
2023/03/07 10:15:02;;;;;;;13.05;7.93;;;;;;;16.35;28.59;92431.13;5010541;28;20045;-60
2023/03/07 10:18:13;;;;;;;14.07;8.55;;;;;;;15.20;29.02;92428.78;5028381;28;20056;-61
2023/03/07 10:20:43;;;;;;;13.03;8.63;;;;;;;15.59;27.50;92418.22;5007784;28;20644;-62
2023/03/07 10:23:39;;;;;;;11.35;8.55;;;;;;;17.76;25.48;92405.09;5030834;28;20033;-62
2023/03/07 10:26:11;;;;;;;12.13;8.38;;;;;;;18.80;24.57;92391.69;5032684;28;22660;-62
2023/03/07 10:28:39;;;;;;;12.90;8.23;;;;;;;17.52;25.56;92404.75;5027854;28;20057;-63
2023/03/07 10:31:22;;;;;;;12.00;8.23;;;;;;;17.69;24.16;92399.28;5014200;28;20046;-64
2023/03/07 10:33:51;;;;;;;11.63;8.67;;;;;;;18.51;22.83;92388.13;5026562;28;20056;-62
2023/03/07 10:36:35;;;;;;;12.75;8.60;;;;;;;17.11;23.90;92393.97;5028966;28;20057;-62
2023/03/07 10:39:26;;;;;;;12.45;8.43;;;;;;;14.95;25.92;92392.25;5031006;28;21524;-62
2023/03/07 10:41:53;;;;;;;11.23;8.13;;;;;;;16.21;25.45;92385.69;5031525;28;20049;-62
2023/03/07 10:44:21;;;;;;;12.40;8.68;;;;;;;16.69;24.38;92376.03;5031703;28;20045;-63
2023/03/07 10:46:56;;;;;;;12.53;7.50;;;;;;;19.39;22.87;92375.16;5031189;28;20049;-62
2023/03/07 10:49:27;;;;;;;16.27;8.25;;;;;;;21.09;20.42;92368.09;5031925;28;20051;-62
2023/03/07 10:52:03;;;;;;;11.40;8.02;;;;;;;19.56;21.57;92361.97;5031254;28;20045;-64
2023/03/07 10:54:33;;;;;;;10.00;7.93;;;;;;;19.27;21.51;92357.75;5031583;28;20114;-63
2023/03/07 10:57:07;;;;;;;11.27;8.90;;;;;;;15.67;25.09;92374.31;5029733;28;20037;-62
2023/03/07 10:59:35;;;;;;;11.83;8.03;;;;;;;19.10;22.01;92374.47;5031170;28;20063;-62
2023/03/07 11:02:22;;;;;;;13.75;9.43;;;;;;;18.82;22.20;92360.63;5030750;28;20828;-63
2023/03/07 11:04:50;;;;;;;13.02;8.65;;;;;;;18.23;22.63;92363.13;5029970;28;20038;-62
2023/03/07 11:07:27;;;;;;;13.55;9.63;;;;;;;16.46;24.38;92367.56;5031492;28;20041;-62
2023/03/07 11:09:56;;;;;;;11.68;8.25;;;;;;;16.09;24.79;92357.16;5031004;28;20484;-62
2023/03/07 11:12:25;;;;;;;12.40;8.33;;;;;;;16.42;24.63;92371.78;5031545;28;20064;-62
2023/03/07 11:15:08;;;;;;;11.52;8.30;;;;;;;15.20;24.51;92368.00;5030876;28;20494;-62
2023/03/07 11:17:42;;;;;;;13.63;8.93;;;;;;;15.21;26.01;92370.25;5031436;28;20041;-62
2023/03/07 11:20:28;;;;;;;12.85;8.45;;;;;;;15.80;24.95;92354.63;5030269;28;20399;-62
2023/03/07 11:23:18;;;;;;;11.07;8.00;;;;;;;15.76;24.56;92361.13;5030807;28;20052;-62
2023/03/07 11:25:44;;;;;;;14.47;8.83;;;;;;;15.78;25.49;92352.34;5020129;28;20099;-62
2023/03/07 11:28:27;;;;;;;11.77;8.30;;;;;;;16.14;24.71;92347.41;5030941;28;20042;-62
2023/03/07 11:31:03;;;;;;;12.80;8.10;;;;;;;18.33;23.50;92353.28;5030476;28;20053;-61
2023/03/07 11:33:42;;;;;;;12.38;8.20;;;;;;;18.17;22.48;92351.25;5030734;28;20086;-63
2023/03/07 11:36:30;;;;;;;13.15;8.30;;;;;;;17.30;23.48;92359.00;5030086;28;20480;-61
2023/03/07 11:39:15;;;;;;;12.30;8.70;;;;;;;15.76;24.89;92365.91;5030523;28;20049;-62
2023/03/07 11:41:46;;;;;;;12.55;8.65;;;;;;;13.70;27.78;92367.44;5030234;28;20099;-63